sensor_id;sensor_type;location;lat;lon;timestamp;P1;durP1;ratioP1;P2;durP2;ratioP2
11100;SDS011;5604;50.722;7.078;2022-09-27T00:01:08;919.77;;;860.43;;
11100;SDS011;5604;50.722;7.078;2022-09-27T00:03:37;928.43;;;868.40;;
11100;SDS011;5604;50.722;7.078;2022-09-27T00:06:06;930.10;;;869.80;;
11100;SDS011;5604;50.722;7.078;2022-09-27T00:08:37;925.90;;;866.20;;
11100;SDS011;5604;50.722;7.078;2022-09-27T00:11:06;924.93;;;865.10;;
11100;SDS011;5604;50.722;7.078;2022-09-27T00:13:39;929.43;;;869.13;;
11100;SDS011;5604;50.722;7.078;2022-09-27T00:16:08;922.97;;;864.27;;
11100;SDS011;5604;50.722;7.078;2022-09-27T00:18:36;922.40;;;863.30;;
11100;SDS011;5604;50.722;7.078;2022-09-27T00:21:06;918.70;;;859.53;;
11100;SDS011;5604;50.722;7.078;2022-09-27T00:23:37;924.00;;;864.70;;
11100;SDS011;5604;50.722;7.078;2022-09-27T00:26:06;927.13;;;867.00;;
11100;SDS011;5604;50.722;7.078;2022-09-27T00:28:36;918.20;;;859.27;;
11100;SDS011;5604;50.722;7.078;2022-09-27T00:31:04;921.77;;;862.53;;
11100;SDS011;5604;50.722;7.078;2022-09-27T00:33:41;920.60;;;861.83;;
11100;SDS011;5604;50.722;7.078;2022-09-27T00:36:09;920.77;;;861.43;;
11100;SDS011;5604;50.722;7.078;2022-09-27T00:38:38;924.23;;;864.93;;
11100;SDS011;5604;50.722;7.078;2022-09-27T00:41:08;916.20;;;857.50;;
11100;SDS011;5604;50.722;7.078;2022-09-27T00:43:44;922.97;;;863.50;;
11100;SDS011;5604;50.722;7.078;2022-09-27T00:46:17;924.47;;;865.13;;
11100;SDS011;5604;50.722;7.078;2022-09-27T00:48:48;922.53;;;862.77;;
11100;SDS011;5604;50.722;7.078;2022-09-27T00:51:22;927.67;;;867.97;;
11100;SDS011;5604;50.722;7.078;2022-09-27T00:53:52;920.53;;;861.20;;
11100;SDS011;5604;50.722;7.078;2022-09-27T00:56:22;929.73;;;869.57;;
11100;SDS011;5604;50.722;7.078;2022-09-27T00:58:53;926.83;;;866.97;;
11100;SDS011;5604;50.722;7.078;2022-09-27T01:01:23;922.53;;;863.10;;
11100;SDS011;5604;50.722;7.078;2022-09-27T01:03:53;929.70;;;870.17;;
11100;SDS011;5604;50.722;7.078;2022-09-27T01:06:24;926.53;;;866.63;;
11100;SDS011;5604;50.722;7.078;2022-09-27T01:08:54;918.20;;;859.30;;
11100;SDS011;5604;50.722;7.078;2022-09-27T01:11:30;928.23;;;868.33;;
11100;SDS011;5604;50.722;7.078;2022-09-27T01:14:07;922.47;;;863.20;;
11100;SDS011;5604;50.722;7.078;2022-09-27T01:16:53;921.27;;;862.23;;
11100;SDS011;5604;50.722;7.078;2022-09-27T01:19:33;921.03;;;862.10;;
11100;SDS011;5604;50.722;7.078;2022-09-27T01:22:14;917.40;;;859.07;;
11100;SDS011;5604;50.722;7.078;2022-09-27T01:28:00;918.73;;;860.53;;
11100;SDS011;5604;50.722;7.078;2022-09-27T01:30:41;921.63;;;862.73;;
11100;SDS011;5604;50.722;7.078;2022-09-27T01:33:17;920.90;;;862.17;;
11100;SDS011;5604;50.722;7.078;2022-09-27T01:35:59;915.77;;;857.20;;
11100;SDS011;5604;50.722;7.078;2022-09-27T01:38:38;919.37;;;860.27;;
11100;SDS011;5604;50.722;7.078;2022-09-27T01:41:14;922.07;;;863.10;;
11100;SDS011;5604;50.722;7.078;2022-09-27T01:44:16;923.60;;;864.30;;
11100;SDS011;5604;50.722;7.078;2022-09-27T01:46:58;918.20;;;859.33;;
11100;SDS011;5604;50.722;7.078;2022-09-27T01:49:45;922.43;;;863.80;;
11100;SDS011;5604;50.722;7.078;2022-09-27T01:52:16;916.00;;;857.60;;
11100;SDS011;5604;50.722;7.078;2022-09-27T01:54:47;913.03;;;855.03;;
11100;SDS011;5604;50.722;7.078;2022-09-27T01:57:37;914.87;;;856.73;;
11100;SDS011;5604;50.722;7.078;2022-09-27T02:00:14;920.23;;;861.50;;
11100;SDS011;5604;50.722;7.078;2022-09-27T02:02:45;918.00;;;859.80;;
11100;SDS011;5604;50.722;7.078;2022-09-27T02:05:32;916.77;;;858.67;;
11100;SDS011;5604;50.722;7.078;2022-09-27T02:08:25;913.70;;;856.07;;
11100;SDS011;5604;50.722;7.078;2022-09-27T02:11:02;905.70;;;848.60;;
11100;SDS011;5604;50.722;7.078;2022-09-27T02:13:41;914.27;;;856.33;;
11100;SDS011;5604;50.722;7.078;2022-09-27T02:16:37;913.97;;;856.20;;
11100;SDS011;5604;50.722;7.078;2022-09-27T02:19:15;908.37;;;851.07;;
11100;SDS011;5604;50.722;7.078;2022-09-27T02:21:49;908.63;;;851.27;;
11100;SDS011;5604;50.722;7.078;2022-09-27T02:24:23;908.17;;;850.63;;
11100;SDS011;5604;50.722;7.078;2022-09-27T02:26:59;913.13;;;855.30;;
11100;SDS011;5604;50.722;7.078;2022-09-27T02:29:33;921.37;;;862.60;;
11100;SDS011;5604;50.722;7.078;2022-09-27T02:32:05;907.83;;;850.13;;
11100;SDS011;5604;50.722;7.078;2022-09-27T02:34:35;905.80;;;849.13;;
11100;SDS011;5604;50.722;7.078;2022-09-27T02:37:03;908.70;;;851.50;;
11100;SDS011;5604;50.722;7.078;2022-09-27T02:39:31;915.37;;;857.50;;
11100;SDS011;5604;50.722;7.078;2022-09-27T02:42:03;904.40;;;847.70;;
11100;SDS011;5604;50.722;7.078;2022-09-27T02:44:32;909.43;;;852.57;;
11100;SDS011;5604;50.722;7.078;2022-09-27T02:47:14;904.57;;;847.63;;
11100;SDS011;5604;50.722;7.078;2022-09-27T02:49:53;902.07;;;845.63;;
11100;SDS011;5604;50.722;7.078;2022-09-27T02:52:49;909.53;;;852.70;;
11100;SDS011;5604;50.722;7.078;2022-09-27T02:55:32;912.17;;;854.93;;
11100;SDS011;5604;50.722;7.078;2022-09-27T02:58:31;904.40;;;847.93;;
11100;SDS011;5604;50.722;7.078;2022-09-27T03:01:20;910.77;;;853.43;;
11100;SDS011;5604;50.722;7.078;2022-09-27T03:04:05;907.57;;;850.77;;
11100;SDS011;5604;50.722;7.078;2022-09-27T03:06:37;906.13;;;849.00;;
11100;SDS011;5604;50.722;7.078;2022-09-27T03:09:12;912.73;;;855.50;;
11100;SDS011;5604;50.722;7.078;2022-09-27T03:11:41;907.33;;;850.33;;
11100;SDS011;5604;50.722;7.078;2022-09-27T03:14:09;904.83;;;848.03;;
11100;SDS011;5604;50.722;7.078;2022-09-27T03:16:45;910.57;;;853.53;;
11100;SDS011;5604;50.722;7.078;2022-09-27T03:19:48;907.03;;;850.30;;
11100;SDS011;5604;50.722;7.078;2022-09-27T03:22:42;903.73;;;847.57;;
11100;SDS011;5604;50.722;7.078;2022-09-27T03:25:10;905.20;;;849.00;;
11100;SDS011;5604;50.722;7.078;2022-09-27T03:27:38;899.70;;;843.53;;
11100;SDS011;5604;50.722;7.078;2022-09-27T03:30:07;904.90;;;848.40;;
11100;SDS011;5604;50.722;7.078;2022-09-27T03:32:36;902.83;;;846.27;;
11100;SDS011;5604;50.722;7.078;2022-09-27T03:35:28;898.83;;;842.70;;
11100;SDS011;5604;50.722;7.078;2022-09-27T03:37:57;901.63;;;844.93;;
11100;SDS011;5604;50.722;7.078;2022-09-27T03:40:25;896.60;;;840.53;;
11100;SDS011;5604;50.722;7.078;2022-09-27T03:42:54;900.13;;;843.73;;
11100;SDS011;5604;50.722;7.078;2022-09-27T03:45:22;897.90;;;842.20;;
11100;SDS011;5604;50.722;7.078;2022-09-27T03:47:50;906.10;;;849.53;;
11100;SDS011;5604;50.722;7.078;2022-09-27T03:50:18;898.67;;;842.77;;
11100;SDS011;5604;50.722;7.078;2022-09-27T03:52:47;899.73;;;843.73;;
11100;SDS011;5604;50.722;7.078;2022-09-27T03:55:16;903.80;;;847.27;;
11100;SDS011;5604;50.722;7.078;2022-09-27T03:57:45;902.23;;;846.03;;
11100;SDS011;5604;50.722;7.078;2022-09-27T04:00:15;893.23;;;838.10;;
11100;SDS011;5604;50.722;7.078;2022-09-27T04:02:43;894.00;;;838.83;;
11100;SDS011;5604;50.722;7.078;2022-09-27T04:05:35;894.73;;;839.57;;
11100;SDS011;5604;50.722;7.078;2022-09-27T04:08:07;897.37;;;841.93;;
11100;SDS011;5604;50.722;7.078;2022-09-27T04:10:38;895.37;;;839.97;;
11100;SDS011;5604;50.722;7.078;2022-09-27T04:13:07;890.80;;;836.37;;
11100;SDS011;5604;50.722;7.078;2022-09-27T04:15:41;896.67;;;841.27;;
11100;SDS011;5604;50.722;7.078;2022-09-27T04:18:38;884.23;;;829.97;;
11100;SDS011;5604;50.722;7.078;2022-09-27T04:21:35;895.10;;;840.20;;
11100;SDS011;5604;50.722;7.078;2022-09-27T04:24:05;888.70;;;833.70;;
11100;SDS011;5604;50.722;7.078;2022-09-27T04:26:35;893.97;;;839.10;;
11100;SDS011;5604;50.722;7.078;2022-09-27T04:29:09;891.93;;;836.87;;
11100;SDS011;5604;50.722;7.078;2022-09-27T04:31:43;894.10;;;839.10;;
11100;SDS011;5604;50.722;7.078;2022-09-27T04:34:34;884.50;;;830.33;;
11100;SDS011;5604;50.722;7.078;2022-09-27T04:37:23;875.57;;;822.43;;
11100;SDS011;5604;50.722;7.078;2022-09-27T04:39:54;886.33;;;832.30;;
11100;SDS011;5604;50.722;7.078;2022-09-27T04:42:24;890.27;;;835.40;;
11100;SDS011;5604;50.722;7.078;2022-09-27T04:44:54;892.00;;;837.10;;
11100;SDS011;5604;50.722;7.078;2022-09-27T04:47:22;890.23;;;835.77;;
11100;SDS011;5604;50.722;7.078;2022-09-27T04:49:50;903.30;;;847.80;;
11100;SDS011;5604;50.722;7.078;2022-09-27T04:52:19;893.03;;;838.13;;
11100;SDS011;5604;50.722;7.078;2022-09-27T04:54:47;892.40;;;837.23;;
11100;SDS011;5604;50.722;7.078;2022-09-27T04:57:16;902.43;;;846.73;;
11100;SDS011;5604;50.722;7.078;2022-09-27T04:59:45;898.73;;;843.27;;
11100;SDS011;5604;50.722;7.078;2022-09-27T05:02:14;892.43;;;837.53;;
11100;SDS011;5604;50.722;7.078;2022-09-27T05:05:02;892.77;;;837.47;;
11100;SDS011;5604;50.722;7.078;2022-09-27T05:07:36;892.03;;;837.30;;
11100;SDS011;5604;50.722;7.078;2022-09-27T05:10:10;894.00;;;839.00;;
11100;SDS011;5604;50.722;7.078;2022-09-27T05:12:38;894.50;;;839.30;;
11100;SDS011;5604;50.722;7.078;2022-09-27T05:15:09;905.40;;;849.17;;
11100;SDS011;5604;50.722;7.078;2022-09-27T05:17:57;896.60;;;841.33;;
11100;SDS011;5604;50.722;7.078;2022-09-27T05:20:51;893.13;;;838.03;;
11100;SDS011;5604;50.722;7.078;2022-09-27T05:23:25;896.60;;;841.63;;
11100;SDS011;5604;50.722;7.078;2022-09-27T05:25:53;896.73;;;841.43;;
11100;SDS011;5604;50.722;7.078;2022-09-27T05:28:22;892.37;;;837.13;;
11100;SDS011;5604;50.722;7.078;2022-09-27T05:30:52;889.83;;;835.07;;
11100;SDS011;5604;50.722;7.078;2022-09-27T05:33:20;891.93;;;836.63;;
11100;SDS011;5604;50.722;7.078;2022-09-27T05:36:27;880.13;;;826.63;;
11100;SDS011;5604;50.722;7.078;2022-09-27T05:38:56;894.43;;;839.47;;
11100;SDS011;5604;50.722;7.078;2022-09-27T05:41:24;889.50;;;834.67;;
11100;SDS011;5604;50.722;7.078;2022-09-27T05:43:53;885.93;;;831.70;;
11100;SDS011;5604;50.722;7.078;2022-09-27T05:46:23;892.00;;;836.97;;
11100;SDS011;5604;50.722;7.078;2022-09-27T05:48:51;882.93;;;828.87;;
11100;SDS011;5604;50.722;7.078;2022-09-27T05:51:19;886.27;;;831.90;;
11100;SDS011;5604;50.722;7.078;2022-09-27T05:53:47;889.67;;;834.83;;
11100;SDS011;5604;50.722;7.078;2022-09-27T05:56:23;882.80;;;829.13;;
11100;SDS011;5604;50.722;7.078;2022-09-27T05:59:13;873.10;;;820.40;;
11100;SDS011;5604;50.722;7.078;2022-09-27T06:02:05;879.80;;;826.77;;
11100;SDS011;5604;50.722;7.078;2022-09-27T06:05:11;868.40;;;815.97;;
11100;SDS011;5604;50.722;7.078;2022-09-27T06:07:39;881.87;;;828.70;;
11100;SDS011;5604;50.722;7.078;2022-09-27T06:10:15;880.30;;;827.10;;
11100;SDS011;5604;50.722;7.078;2022-09-27T06:12:43;883.80;;;830.03;;
11100;SDS011;5604;50.722;7.078;2022-09-27T06:15:27;880.03;;;826.77;;
11100;SDS011;5604;50.722;7.078;2022-09-27T06:18:01;884.03;;;830.13;;
11100;SDS011;5604;50.722;7.078;2022-09-27T06:20:31;874.70;;;821.67;;
11100;SDS011;5604;50.722;7.078;2022-09-27T06:23:03;879.37;;;826.37;;
11100;SDS011;5604;50.722;7.078;2022-09-27T06:25:33;874.00;;;821.17;;
11100;SDS011;5604;50.722;7.078;2022-09-27T06:28:27;873.77;;;821.37;;
11100;SDS011;5604;50.722;7.078;2022-09-27T06:30:56;877.90;;;824.93;;
11100;SDS011;5604;50.722;7.078;2022-09-27T06:33:36;881.03;;;827.63;;
11100;SDS011;5604;50.722;7.078;2022-09-27T06:36:05;878.50;;;825.43;;
11100;SDS011;5604;50.722;7.078;2022-09-27T06:38:36;876.63;;;823.73;;
11100;SDS011;5604;50.722;7.078;2022-09-27T06:41:26;865.80;;;813.87;;
11100;SDS011;5604;50.722;7.078;2022-09-27T06:44:23;863.23;;;811.57;;
11100;SDS011;5604;50.722;7.078;2022-09-27T06:47:10;863.07;;;811.83;;
11100;SDS011;5604;50.722;7.078;2022-09-27T06:49:58;867.13;;;815.43;;
11100;SDS011;5604;50.722;7.078;2022-09-27T06:52:32;870.00;;;818.07;;
11100;SDS011;5604;50.722;7.078;2022-09-27T06:55:00;865.07;;;813.67;;
11100;SDS011;5604;50.722;7.078;2022-09-27T06:57:30;872.17;;;820.27;;
11100;SDS011;5604;50.722;7.078;2022-09-27T07:00:16;857.77;;;806.73;;
11100;SDS011;5604;50.722;7.078;2022-09-27T07:03:05;850.70;;;800.67;;
11100;SDS011;5604;50.722;7.078;2022-09-27T07:05:54;843.70;;;794.23;;
11100;SDS011;5604;50.722;7.078;2022-09-27T07:08:48;832.63;;;784.33;;
11100;SDS011;5604;50.722;7.078;2022-09-27T07:11:17;845.57;;;796.20;;
11100;SDS011;5604;50.722;7.078;2022-09-27T07:13:45;843.90;;;794.80;;
11100;SDS011;5604;50.722;7.078;2022-09-27T07:16:14;837.33;;;787.80;;
11100;SDS011;5604;50.722;7.078;2022-09-27T07:18:42;847.67;;;797.10;;
11100;SDS011;5604;50.722;7.078;2022-09-27T07:21:12;847.17;;;796.97;;
11100;SDS011;5604;50.722;7.078;2022-09-27T07:23:41;845.73;;;795.10;;
11100;SDS011;5604;50.722;7.078;2022-09-27T07:26:12;843.07;;;793.03;;
11100;SDS011;5604;50.722;7.078;2022-09-27T07:28:40;840.57;;;790.50;;
11100;SDS011;5604;50.722;7.078;2022-09-27T07:31:12;840.43;;;790.83;;
11100;SDS011;5604;50.722;7.078;2022-09-27T07:33:40;842.13;;;792.63;;
11100;SDS011;5604;50.722;7.078;2022-09-27T07:36:10;834.17;;;785.47;;
11100;SDS011;5604;50.722;7.078;2022-09-27T07:38:44;840.70;;;790.40;;
11100;SDS011;5604;50.722;7.078;2022-09-27T07:41:13;833.80;;;784.37;;
11100;SDS011;5604;50.722;7.078;2022-09-27T07:43:43;839.50;;;788.77;;
11100;SDS011;5604;50.722;7.078;2022-09-27T07:46:12;838.93;;;787.40;;
11100;SDS011;5604;50.722;7.078;2022-09-27T07:48:55;839.43;;;789.37;;
11100;SDS011;5604;50.722;7.078;2022-09-27T07:51:40;837.60;;;787.53;;
11100;SDS011;5604;50.722;7.078;2022-09-27T07:54:27;827.53;;;779.47;;
11100;SDS011;5604;50.722;7.078;2022-09-27T07:57:04;821.07;;;773.70;;
11100;SDS011;5604;50.722;7.078;2022-09-27T07:59:42;819.60;;;772.97;;
11100;SDS011;5604;50.722;7.078;2022-09-27T08:02:14;819.00;;;772.57;;
11100;SDS011;5604;50.722;7.078;2022-09-27T08:04:44;927.30;;;866.50;;
11100;SDS011;5604;50.722;7.078;2022-09-27T08:07:15;886.80;;;831.97;;
11100;SDS011;5604;50.722;7.078;2022-09-27T08:09:46;874.47;;;820.40;;
11100;SDS011;5604;50.722;7.078;2022-09-27T08:12:15;868.20;;;815.70;;
11100;SDS011;5604;50.722;7.078;2022-09-27T08:14:43;861.80;;;809.50;;
11100;SDS011;5604;50.722;7.078;2022-09-27T08:17:14;858.47;;;806.13;;
11100;SDS011;5604;50.722;7.078;2022-09-27T08:20:02;857.00;;;805.83;;
11100;SDS011;5604;50.722;7.078;2022-09-27T08:23:13;855.93;;;805.10;;
11100;SDS011;5604;50.722;7.078;2022-09-27T08:25:42;866.07;;;813.27;;
11100;SDS011;5604;50.722;7.078;2022-09-27T08:28:32;880.00;;;826.03;;
11100;SDS011;5604;50.722;7.078;2022-09-27T08:31:04;881.40;;;826.97;;
11100;SDS011;5604;50.722;7.078;2022-09-27T08:33:32;880.43;;;825.90;;
11100;SDS011;5604;50.722;7.078;2022-09-27T08:36:11;894.17;;;838.47;;
11100;SDS011;5604;50.722;7.078;2022-09-27T08:38:41;902.73;;;845.50;;
11100;SDS011;5604;50.722;7.078;2022-09-27T08:41:11;909.33;;;852.20;;
11100;SDS011;5604;50.722;7.078;2022-09-27T08:43:45;897.13;;;840.97;;
11100;SDS011;5604;50.722;7.078;2022-09-27T08:46:21;902.93;;;845.73;;
11100;SDS011;5604;50.722;7.078;2022-09-27T08:48:56;908.63;;;851.00;;
11100;SDS011;5604;50.722;7.078;2022-09-27T08:51:28;883.80;;;828.73;;
11100;SDS011;5604;50.722;7.078;2022-09-27T08:54:00;899.30;;;842.37;;
11100;SDS011;5604;50.722;7.078;2022-09-27T08:56:30;905.87;;;848.50;;
11100;SDS011;5604;50.722;7.078;2022-09-27T08:59:00;911.97;;;853.37;;
11100;SDS011;5604;50.722;7.078;2022-09-27T09:01:33;914.13;;;854.90;;
11100;SDS011;5604;50.722;7.078;2022-09-27T09:04:08;921.70;;;861.23;;
11100;SDS011;5604;50.722;7.078;2022-09-27T09:06:39;922.50;;;862.27;;
11100;SDS011;5604;50.722;7.078;2022-09-27T09:09:15;922.10;;;862.47;;
11100;SDS011;5604;50.722;7.078;2022-09-27T09:12:05;928.53;;;868.00;;
11100;SDS011;5604;50.722;7.078;2022-09-27T09:14:59;919.70;;;859.83;;
11100;SDS011;5604;50.722;7.078;2022-09-27T09:17:36;921.67;;;862.13;;
11100;SDS011;5604;50.722;7.078;2022-09-27T09:20:43;906.40;;;;;
11100;SDS011;5604;50.722;7.078;2022-09-27T09:23:35;926.93;;;866.07;;
11100;SDS011;5604;50.722;7.078;2022-09-27T09:26:12;946.80;;;883.90;;
11100;SDS011;5604;50.722;7.078;2022-09-27T09:28:49;959.17;;;894.20;;
11100;SDS011;5604;50.722;7.078;2022-09-27T09:31:26;951.50;;;888.00;;
11100;SDS011;5604;50.722;7.078;2022-09-27T09:34:02;955.70;;;891.07;;
11100;SDS011;5604;50.722;7.078;2022-09-27T09:36:37;971.87;;;905.23;;
11100;SDS011;5604;50.722;7.078;2022-09-27T09:39:11;978.13;;;910.40;;
11100;SDS011;5604;50.722;7.078;2022-09-27T09:41:45;981.27;;;912.90;;
11100;SDS011;5604;50.722;7.078;2022-09-27T09:44:21;972.10;;;904.97;;
11100;SDS011;5604;50.722;7.078;2022-09-27T09:46:54;979.97;;;912.50;;
11100;SDS011;5604;50.722;7.078;2022-09-27T09:49:25;973.10;;;905.97;;
11100;SDS011;5604;50.722;7.078;2022-09-27T09:51:58;978.97;;;911.00;;
11100;SDS011;5604;50.722;7.078;2022-09-27T09:54:35;978.33;;;910.40;;
11100;SDS011;5604;50.722;7.078;2022-09-27T09:57:10;969.53;;;903.07;;
11100;SDS011;5604;50.722;7.078;2022-09-27T09:59:41;970.63;;;903.30;;
11100;SDS011;5604;50.722;7.078;2022-09-27T10:02:16;977.80;;;909.53;;
11100;SDS011;5604;50.722;7.078;2022-09-27T10:04:54;969.77;;;903.20;;
11100;SDS011;5604;50.722;7.078;2022-09-27T10:07:23;980.50;;;912.37;;
11100;SDS011;5604;50.722;7.078;2022-09-27T10:09:53;975.40;;;907.63;;
11100;SDS011;5604;50.722;7.078;2022-09-27T10:12:44;990.87;;;920.80;;
11100;SDS011;5604;50.722;7.078;2022-09-27T10:15:14;997.53;;;926.30;;
11100;SDS011;5604;50.722;7.078;2022-09-27T10:17:45;997.20;;;925.90;;
11100;SDS011;5604;50.722;7.078;2022-09-27T10:20:20;1001.10;;;929.50;;
11100;SDS011;5604;50.722;7.078;2022-09-27T10:22:56;992.97;;;922.87;;
11100;SDS011;5604;50.722;7.078;2022-09-27T10:25:49;983.43;;;914.87;;
11100;SDS011;5604;50.722;7.078;2022-09-27T10:28:49;969.23;;;902.50;;
11100;SDS011;5604;50.722;7.078;2022-09-27T10:31:33;982.87;;;914.17;;
11100;SDS011;5604;50.722;7.078;2022-09-27T10:34:16;992.50;;;922.60;;
11100;SDS011;5604;50.722;7.078;2022-09-27T10:37:02;979.53;;;911.23;;
11100;SDS011;5604;50.722;7.078;2022-09-27T10:39:42;997.80;;;926.90;;
11100;SDS011;5604;50.722;7.078;2022-09-27T10:42:21;1001.93;;;930.03;;
11100;SDS011;5604;50.722;7.078;2022-09-27T10:44:54;996.80;;;925.60;;
11100;SDS011;5604;50.722;7.078;2022-09-27T10:47:31;1012.93;;;939.80;;
11100;SDS011;5604;50.722;7.078;2022-09-27T10:50:04;1012.50;;;938.80;;
11100;SDS011;5604;50.722;7.078;2022-09-27T10:52:59;1022.90;;;947.90;;
11100;SDS011;5604;50.722;7.078;2022-09-27T10:55:30;1017.83;;;943.67;;
11100;SDS011;5604;50.722;7.078;2022-09-27T10:58:00;1011.77;;;938.33;;
11100;SDS011;5604;50.722;7.078;2022-09-27T11:00:31;1006.23;;;933.77;;
11100;SDS011;5604;50.722;7.078;2022-09-27T11:03:01;1018.97;;;944.47;;
11100;SDS011;5604;50.722;7.078;2022-09-27T11:05:34;1003.97;;;931.77;;
11100;SDS011;5604;50.722;7.078;2022-09-27T11:08:19;1005.77;;;933.33;;
11100;SDS011;5604;50.722;7.078;2022-09-27T11:11:06;1018.43;;;944.50;;
11100;SDS011;5604;50.722;7.078;2022-09-27T11:13:55;1000.23;;;929.10;;
11100;SDS011;5604;50.722;7.078;2022-09-27T11:16:29;997.10;;;926.27;;
11100;SDS011;5604;50.722;7.078;2022-09-27T11:19:12;1008.87;;;935.80;;
11100;SDS011;5604;50.722;7.078;2022-09-27T11:21:49;1004.97;;;932.60;;
11100;SDS011;5604;50.722;7.078;2022-09-27T11:27:22;1007.83;;;934.97;;
11100;SDS011;5604;50.722;7.078;2022-09-27T11:30:00;992.03;;;922.00;;
11100;SDS011;5604;50.722;7.078;2022-09-27T11:32:58;1001.90;;;930.07;;
11100;SDS011;5604;50.722;7.078;2022-09-27T11:35:38;1004.00;;;932.13;;
11100;SDS011;5604;50.722;7.078;2022-09-27T11:38:16;1008.23;;;935.10;;
11100;SDS011;5604;50.722;7.078;2022-09-27T11:41:13;1022.97;;;947.70;;
11100;SDS011;5604;50.722;7.078;2022-09-27T11:44:10;1019.00;;;944.67;;
11100;SDS011;5604;50.722;7.078;2022-09-27T11:46:58;1031.70;;;955.73;;
11100;SDS011;5604;50.722;7.078;2022-09-27T11:49:40;1029.00;;;953.00;;
11100;SDS011;5604;50.722;7.078;2022-09-27T11:52:26;1035.20;;;958.10;;
11100;SDS011;5604;50.722;7.078;2022-09-27T11:55:04;1028.33;;;951.93;;
11100;SDS011;5604;50.722;7.078;2022-09-27T11:57:49;1021.57;;;946.17;;
11100;SDS011;5604;50.722;7.078;2022-09-27T12:00:30;1019.20;;;944.87;;
11100;SDS011;5604;50.722;7.078;2022-09-27T12:06:16;1022.13;;;946.83;;
11100;SDS011;5604;50.722;7.078;2022-09-27T12:08:52;1007.10;;;933.57;;
11100;SDS011;5604;50.722;7.078;2022-09-27T12:11:31;1028.20;;;952.07;;
11100;SDS011;5604;50.722;7.078;2022-09-27T12:14:05;1020.03;;;944.67;;
11100;SDS011;5604;50.722;7.078;2022-09-27T12:16:36;1021.83;;;946.70;;
11100;SDS011;5604;50.722;7.078;2022-09-27T12:19:09;1023.07;;;947.37;;
11100;SDS011;5604;50.722;7.078;2022-09-27T12:21:52;1018.40;;;943.97;;
11100;SDS011;5604;50.722;7.078;2022-09-27T12:24:22;1006.97;;;934.30;;
11100;SDS011;5604;50.722;7.078;2022-09-27T12:27:07;1024.40;;;948.87;;
11100;SDS011;5604;50.722;7.078;2022-09-27T12:29:42;1024.20;;;948.20;;
11100;SDS011;5604;50.722;7.078;2022-09-27T12:32:12;1001.77;;;929.57;;
11100;SDS011;5604;50.722;7.078;2022-09-27T12:34:45;998.47;;;926.87;;
11100;SDS011;5604;50.722;7.078;2022-09-27T12:37:20;1014.77;;;940.77;;
11100;SDS011;5604;50.722;7.078;2022-09-27T12:39:53;986.90;;;917.07;;
11100;SDS011;5604;50.722;7.078;2022-09-27T12:42:32;995.27;;;924.20;;
11100;SDS011;5604;50.722;7.078;2022-09-27T12:45:09;957.80;;;891.87;;
11100;SDS011;5604;50.722;7.078;2022-09-27T12:47:49;946.33;;;882.00;;
11100;SDS011;5604;50.722;7.078;2022-09-27T12:50:27;967.70;;;900.83;;
11100;SDS011;5604;50.722;7.078;2022-09-27T12:53:00;986.97;;;917.67;;
11100;SDS011;5604;50.722;7.078;2022-09-27T12:55:41;994.43;;;923.67;;
11100;SDS011;5604;50.722;7.078;2022-09-27T12:58:32;990.30;;;919.80;;
11100;SDS011;5604;50.722;7.078;2022-09-27T13:01:19;1019.03;;;944.17;;
11100;SDS011;5604;50.722;7.078;2022-09-27T13:04:08;1019.67;;;945.00;;
11100;SDS011;5604;50.722;7.078;2022-09-27T13:07:00;1022.23;;;946.83;;
11100;SDS011;5604;50.722;7.078;2022-09-27T13:09:47;1025.90;;;950.03;;
11100;SDS011;5604;50.722;7.078;2022-09-27T13:12:23;1023.03;;;947.53;;
11100;SDS011;5604;50.722;7.078;2022-09-27T13:14:56;1011.23;;;937.87;;
11100;SDS011;5604;50.722;7.078;2022-09-27T13:17:31;1017.37;;;942.63;;
11100;SDS011;5604;50.722;7.078;2022-09-27T13:20:38;1013.37;;;939.83;;
11100;SDS011;5604;50.722;7.078;2022-09-27T13:29:20;1015.97;;;941.57;;
11100;SDS011;5604;50.722;7.078;2022-09-27T13:35:11;1005.93;;;932.70;;
11100;SDS011;5604;50.722;7.078;2022-09-27T13:37:53;1007.40;;;934.27;;
11100;SDS011;5604;50.722;7.078;2022-09-27T13:40:30;986.93;;;917.30;;
11100;SDS011;5604;50.722;7.078;2022-09-27T13:46:25;1048.63;;;968.73;;
11100;SDS011;5604;50.722;7.078;2022-09-27T13:48:54;1050.90;;;970.87;;
11100;SDS011;5604;50.722;7.078;2022-09-27T13:51:39;1038.27;;;960.30;;
11100;SDS011;5604;50.722;7.078;2022-09-27T13:57:06;1029.03;;;953.53;;
11100;SDS011;5604;50.722;7.078;2022-09-27T14:00:13;1033.73;;;957.43;;
11100;SDS011;5604;50.722;7.078;2022-09-27T14:02:54;1034.47;;;957.37;;
11100;SDS011;5604;50.722;7.078;2022-09-27T14:05:38;1028.73;;;952.53;;
11100;SDS011;5604;50.722;7.078;2022-09-27T14:08:13;1032.90;;;956.17;;
11100;SDS011;5604;50.722;7.078;2022-09-27T14:10:46;1038.33;;;961.13;;
11100;SDS011;5604;50.722;7.078;2022-09-27T14:13:14;1044.43;;;966.13;;
11100;SDS011;5604;50.722;7.078;2022-09-27T14:15:56;1043.90;;;965.00;;
11100;SDS011;5604;50.722;7.078;2022-09-27T14:18:27;1046.90;;;968.03;;
11100;SDS011;5604;50.722;7.078;2022-09-27T14:21:07;1048.77;;;969.20;;
11100;SDS011;5604;50.722;7.078;2022-09-27T14:23:49;1036.03;;;958.63;;
11100;SDS011;5604;50.722;7.078;2022-09-27T14:26:21;1034.00;;;956.67;;
11100;SDS011;5604;50.722;7.078;2022-09-27T14:28:51;1046.23;;;967.40;;
11100;SDS011;5604;50.722;7.078;2022-09-27T14:31:30;1043.00;;;964.37;;
11100;SDS011;5604;50.722;7.078;2022-09-27T14:34:19;1040.07;;;962.07;;
11100;SDS011;5604;50.722;7.078;2022-09-27T14:36:47;1035.47;;;958.37;;
11100;SDS011;5604;50.722;7.078;2022-09-27T14:39:45;1038.60;;;960.83;;
11100;SDS011;5604;50.722;7.078;2022-09-27T14:42:28;1046.97;;;967.63;;
11100;SDS011;5604;50.722;7.078;2022-09-27T14:45:00;1040.80;;;962.43;;
11100;SDS011;5604;50.722;7.078;2022-09-27T14:47:34;1026.97;;;950.77;;
11100;SDS011;5604;50.722;7.078;2022-09-27T14:50:11;1026.60;;;951.37;;
11100;SDS011;5604;50.722;7.078;2022-09-27T14:52:40;1032.40;;;955.40;;
11100;SDS011;5604;50.722;7.078;2022-09-27T14:55:09;1033.90;;;957.43;;
11100;SDS011;5604;50.722;7.078;2022-09-27T14:57:44;1018.60;;;943.63;;
11100;SDS011;5604;50.722;7.078;2022-09-27T15:00:17;1025.23;;;950.37;;
11100;SDS011;5604;50.722;7.078;2022-09-27T15:02:48;1039.67;;;961.60;;
11100;SDS011;5604;50.722;7.078;2022-09-27T15:05:20;1014.90;;;940.93;;
11100;SDS011;5604;50.722;7.078;2022-09-27T15:07:50;1047.80;;;968.27;;
11100;SDS011;5604;50.722;7.078;2022-09-27T15:10:21;1021.10;;;946.13;;
11100;SDS011;5604;50.722;7.078;2022-09-27T15:12:53;1038.27;;;960.13;;
11100;SDS011;5604;50.722;7.078;2022-09-27T15:15:25;1015.33;;;941.53;;
11100;SDS011;5604;50.722;7.078;2022-09-27T15:17:57;1039.17;;;960.83;;
11100;SDS011;5604;50.722;7.078;2022-09-27T15:20:26;1043.03;;;964.07;;
11100;SDS011;5604;50.722;7.078;2022-09-27T15:23:01;1071.60;;;984.30;;
11100;SDS011;5604;50.722;7.078;2022-09-27T15:25:30;1044.77;;;964.87;;